createdAt,value
2019-03-29T00:00:39.214Z,43.23
2019-03-29T00:03:09.202Z,43.80
2019-03-29T00:05:38.861Z,45.33
2019-03-29T00:08:10.553Z,48.00
2019-03-29T00:10:40.097Z,42.60
2019-03-29T00:13:14.348Z,44.13
2019-03-29T00:15:46.419Z,49.27
2019-03-29T00:18:17.373Z,38.97
2019-03-29T00:20:47.219Z,47.33
2019-03-29T00:23:17.464Z,47.40
2019-03-29T00:25:47.048Z,50.10
2019-03-29T00:28:16.282Z,50.73
2019-03-29T00:30:58.319Z,37.93
2019-03-29T00:33:31.116Z,48.87
2019-03-29T00:36:00.235Z,49.00
2019-03-29T00:38:30.096Z,39.57
2019-03-29T00:41:00.226Z,45.13
2019-03-29T00:43:29.470Z,46.13
2019-03-29T00:45:59.007Z,39.73
2019-03-29T00:51:35.796Z,43.97
2019-03-29T00:54:05.864Z,43.67
2019-03-29T00:56:35.429Z,46.57
2019-03-29T00:59:06.134Z,41.93
2019-03-29T01:01:39.922Z,46.67
2019-03-29T01:04:09.590Z,50.07
2019-03-29T01:06:39.254Z,49.20
2019-03-29T01:09:11.375Z,43.20
2019-03-29T01:11:41.475Z,38.47
2019-03-29T01:14:11.901Z,49.47
2019-03-29T01:16:42.924Z,45.97
2019-03-29T01:19:14.558Z,48.13
2019-03-29T01:21:44.187Z,49.87
2019-03-29T01:24:14.191Z,48.97
2019-03-29T01:26:51.380Z,45.33
2019-03-29T01:29:20.719Z,43.83
2019-03-29T01:31:50.140Z,46.97
2019-03-29T01:34:23.461Z,39.07
2019-03-29T01:46:43.021Z,54.37
2019-03-29T01:56:12.542Z,35.50
2019-03-29T01:58:43.007Z,40.37
2019-03-29T02:01:17.087Z,46.57
2019-03-29T02:03:48.168Z,40.33
2019-03-29T02:06:30.270Z,54.03
2019-03-29T02:08:59.610Z,53.33
2019-03-29T02:11:37.759Z,53.70
2019-03-29T02:14:06.924Z,41.20
2019-03-29T02:16:35.962Z,46.87
2019-03-29T02:19:32.202Z,36.77
2019-03-29T02:22:01.844Z,48.03
2019-03-29T02:24:31.626Z,52.67
2019-03-29T02:27:01.724Z,47.30
2019-03-29T02:29:30.813Z,46.23
2019-03-29T02:32:00.132Z,46.37
2019-03-29T02:34:29.199Z,55.77
2019-03-29T02:36:59.210Z,42.00
2019-03-29T02:39:28.796Z,44.60
2019-03-29T02:41:58.620Z,42.23
2019-03-29T02:44:28.155Z,47.50
2019-03-29T02:46:57.375Z,51.03
2019-03-29T02:49:26.528Z,54.53
2019-03-29T02:51:56.196Z,43.73
2019-03-29T02:54:25.360Z,49.43
2019-03-29T02:56:54.858Z,47.27
2019-03-29T02:59:24.351Z,53.20
2019-03-29T03:01:53.861Z,51.53
2019-03-29T03:04:23.139Z,50.60
2019-03-29T03:06:52.952Z,49.97
2019-03-29T03:09:22.175Z,53.67
2019-03-29T03:11:51.878Z,53.13
2019-03-29T03:14:22.996Z,51.57
2019-03-29T03:16:52.285Z,52.50
2019-03-29T03:19:21.455Z,50.70
2019-03-29T03:21:50.715Z,49.60
2019-03-29T03:24:21.651Z,50.83
2019-03-29T03:26:50.789Z,52.40
2019-03-29T03:29:19.980Z,51.57
2019-03-29T03:31:49.149Z,49.43
2019-03-29T03:34:18.421Z,47.10
2019-03-29T03:36:47.468Z,44.57
2019-03-29T03:39:30.593Z,42.87
2019-03-29T03:41:47.539Z,39.23
2019-03-29T03:44:16.601Z,41.47
2019-03-29T03:46:46.312Z,40.80
2019-03-29T03:49:16.551Z,41.33
2019-03-29T03:51:46.792Z,35.10
2019-03-29T03:54:15.901Z,34.43
2019-03-29T03:56:45.586Z,40.60
2019-03-29T03:59:14.808Z,45.17
2019-03-29T04:01:44.266Z,39.30
2019-03-29T04:04:13.487Z,38.83
2019-03-29T04:06:42.773Z,38.03
2019-03-29T04:09:12.635Z,37.20
2019-03-29T04:11:41.691Z,38.57
2019-03-29T04:14:10.781Z,36.00
2019-03-29T04:16:40.028Z,39.17
2019-03-29T04:19:09.476Z,34.40
2019-03-29T04:21:38.704Z,31.33
2019-03-29T04:24:07.832Z,36.57
2019-03-29T04:26:37.368Z,36.47
2019-03-29T04:29:06.698Z,38.13
2019-03-29T04:31:36.619Z,38.27
2019-03-29T04:34:05.984Z,39.10
2019-03-29T04:36:35.663Z,39.30
2019-03-29T04:39:06.238Z,36.87
2019-03-29T04:41:35.459Z,36.90
2019-03-29T04:44:05.011Z,35.90
2019-03-29T04:46:34.299Z,40.83
2019-03-29T04:49:03.476Z,37.20
2019-03-29T04:51:32.577Z,33.53
2019-03-29T04:54:02.209Z,31.60
2019-03-29T04:56:31.369Z,28.93
2019-03-29T04:59:00.456Z,31.00
2019-03-29T05:01:30.369Z,32.40
2019-03-29T05:03:59.822Z,38.67
2019-03-29T05:06:30.872Z,36.67
2019-03-29T05:09:01.135Z,34.80
2019-03-29T05:11:30.271Z,36.73
2019-03-29T05:13:59.613Z,38.20
2019-03-29T05:16:30.165Z,34.03
2019-03-29T05:18:59.199Z,40.43
2019-03-29T05:21:29.372Z,41.40
2019-03-29T05:23:58.471Z,42.33
2019-03-29T05:26:27.591Z,41.83
2019-03-29T05:28:56.812Z,42.77
2019-03-29T05:31:27.000Z,40.23
2019-03-29T05:33:56.907Z,41.23
2019-03-29T05:36:27.277Z,39.77
2019-03-29T05:38:57.051Z,41.13
2019-03-29T05:41:34.402Z,41.70
2019-03-29T05:44:09.511Z,43.57
2019-03-29T05:46:47.967Z,45.20
2019-03-29T05:49:17.980Z,41.07
2019-03-29T05:51:47.131Z,41.20
2019-03-29T05:54:17.958Z,38.03
2019-03-29T05:56:47.376Z,41.40
2019-03-29T05:59:17.699Z,43.30
2019-03-29T06:01:46.754Z,42.53
2019-03-29T06:04:15.961Z,44.23
2019-03-29T06:06:44.997Z,42.27
2019-03-29T06:09:14.904Z,43.17
2019-03-29T06:11:44.066Z,39.33
2019-03-29T06:14:13.205Z,41.13
2019-03-29T06:16:42.227Z,39.67
2019-03-29T06:19:19.679Z,42.50
2019-03-29T06:21:50.294Z,44.10
2019-03-29T06:24:19.353Z,43.93
2019-03-29T06:26:48.896Z,44.23
2019-03-29T06:29:18.030Z,45.43
2019-03-29T06:31:47.411Z,42.93
2019-03-29T06:34:16.959Z,88.80
2019-03-29T06:36:47.192Z,47.43
2019-03-29T06:39:17.244Z,44.77
2019-03-29T06:41:46.320Z,44.40
2019-03-29T06:44:15.811Z,45.67
2019-03-29T06:46:48.304Z,43.47
2019-03-29T06:49:19.218Z,39.00
2019-03-29T06:51:48.571Z,52.27
2019-03-29T06:54:18.795Z,37.77
2019-03-29T06:56:50.166Z,41.27
2019-03-29T06:59:19.247Z,43.93
2019-03-29T07:01:48.475Z,35.70
2019-03-29T07:04:17.740Z,41.07
2019-03-29T07:06:47.181Z,39.00
2019-03-29T07:09:16.407Z,40.07
2019-03-29T07:11:46.480Z,39.67
2019-03-29T07:14:16.636Z,38.80
2019-03-29T07:16:45.984Z,35.83
2019-03-29T07:19:15.203Z,39.63
2019-03-29T07:21:44.334Z,39.83
2019-03-29T07:24:13.457Z,37.70
2019-03-29T07:26:44.503Z,36.90
2019-03-29T07:29:18.898Z,36.30
2019-03-29T07:31:53.157Z,34.43
2019-03-29T07:34:26.498Z,39.97
2019-03-29T07:36:56.062Z,38.47
2019-03-29T07:39:33.943Z,36.17
2019-03-29T07:42:03.477Z,34.67
2019-03-29T07:44:33.533Z,39.10
2019-03-29T07:47:02.700Z,36.40
2019-03-29T07:49:37.950Z,36.33
2019-03-29T07:52:07.665Z,35.80
2019-03-29T07:54:38.631Z,32.90
2019-03-29T07:57:07.851Z,33.33
2019-03-29T07:59:37.404Z,32.13
2019-03-29T08:02:06.797Z,29.63
2019-03-29T08:04:37.152Z,30.60
2019-03-29T08:07:07.548Z,30.60
2019-03-29T08:09:37.105Z,28.47
2019-03-29T08:12:06.666Z,27.77
2019-03-29T08:14:38.428Z,24.97
2019-03-29T08:17:09.442Z,24.50
2019-03-29T08:19:41.799Z,22.50
2019-03-29T08:22:12.724Z,24.03
2019-03-29T08:24:42.627Z,23.73
2019-03-29T08:27:12.867Z,22.93
2019-03-29T08:29:43.547Z,23.03
2019-03-29T08:32:12.718Z,23.20
2019-03-29T08:34:42.180Z,23.07
2019-03-29T08:37:12.378Z,21.70
2019-03-29T08:39:42.168Z,20.23
2019-03-29T08:42:11.876Z,21.70
2019-03-29T08:44:41.077Z,21.50
2019-03-29T08:47:10.856Z,20.27
2019-03-29T08:49:40.085Z,20.53
2019-03-29T08:52:09.540Z,18.57
2019-03-29T08:54:39.640Z,18.07
2019-03-29T08:57:10.551Z,17.73
2019-03-29T08:59:39.908Z,17.00
2019-03-29T09:02:09.593Z,16.93
2019-03-29T09:04:42.843Z,19.17
2019-03-29T09:07:16.582Z,21.23
2019-03-29T09:09:46.583Z,20.07
2019-03-29T09:12:15.987Z,20.63
2019-03-29T09:14:45.089Z,19.73
2019-03-29T09:17:14.176Z,18.93
2019-03-29T09:19:43.438Z,15.70
2019-03-29T09:22:12.647Z,17.57
2019-03-29T09:24:41.746Z,15.53
2019-03-29T09:27:10.821Z,13.20
2019-03-29T09:29:40.301Z,12.47
2019-03-29T09:32:10.009Z,11.30
2019-03-29T09:34:39.213Z,9.17
2019-03-29T09:37:08.300Z,9.73
2019-03-29T09:39:38.137Z,10.90
2019-03-29T09:42:27.538Z,11.63
2019-03-29T09:44:44.046Z,13.47
2019-03-29T09:47:15.827Z,13.23
2019-03-29T09:49:47.522Z,11.80
2019-03-29T09:52:16.747Z,10.90
2019-03-29T09:54:53.905Z,11.20
2019-03-29T09:57:36.855Z,11.63
2019-03-29T09:59:59.837Z,8.27
2019-03-29T10:02:34.861Z,7.23
2019-03-29T10:05:06.295Z,9.47
2019-03-29T10:07:37.423Z,10.07
2019-03-29T10:10:06.925Z,7.47
2019-03-29T10:12:43.760Z,7.07
2019-03-29T10:15:16.916Z,7.20
2019-03-29T10:17:47.536Z,7.33
2019-03-29T10:20:17.366Z,4.43
2019-03-29T10:22:50.051Z,5.87
2019-03-29T10:25:20.348Z,3.83
2019-03-29T10:27:52.647Z,2.50
2019-03-29T10:30:38.321Z,3.43
2019-03-29T10:33:09.984Z,6.20
2019-03-29T10:35:51.379Z,5.63
2019-03-29T10:38:18.764Z,5.17
2019-03-29T10:40:48.144Z,6.10
2019-03-29T10:43:25.055Z,5.90
2019-03-29T10:45:55.072Z,5.90
2019-03-29T10:48:24.457Z,5.87
2019-03-29T10:50:58.561Z,5.60
2019-03-29T10:53:28.981Z,5.43
2019-03-29T10:55:58.450Z,5.83
2019-03-29T10:58:29.331Z,5.33
2019-03-29T11:01:02.410Z,5.77
2019-03-29T11:03:35.018Z,5.87
2019-03-29T11:06:04.255Z,6.00
2019-03-29T11:08:36.124Z,5.50
2019-03-29T11:11:07.561Z,6.40
2019-03-29T11:13:40.759Z,6.73
2019-03-29T11:16:10.264Z,6.77
2019-03-29T11:18:45.899Z,6.43
2019-03-29T11:21:18.206Z,6.47
2019-03-29T11:23:48.560Z,6.23
2019-03-29T11:26:18.741Z,6.43
2019-03-29T11:28:48.067Z,7.40
2019-03-29T11:31:19.579Z,6.70
2019-03-29T11:33:49.999Z,7.73
2019-03-29T11:36:21.863Z,6.60
2019-03-29T11:38:50.725Z,6.17
2019-03-29T11:41:19.773Z,6.87
2019-03-29T11:43:48.816Z,7.67
2019-03-29T11:46:18.102Z,7.33
2019-03-29T11:48:47.990Z,8.43
2019-03-29T11:51:19.797Z,8.43
2019-03-29T11:53:51.207Z,8.57
2019-03-29T11:56:20.717Z,8.73
2019-03-29T11:58:50.254Z,7.67
2019-03-29T12:01:19.553Z,9.83
2019-03-29T12:03:49.087Z,10.37
2019-03-29T12:06:18.867Z,10.70
2019-03-29T12:08:48.393Z,11.97
2019-03-29T12:11:18.278Z,11.67
2019-03-29T12:13:47.650Z,10.80
2019-03-29T12:16:17.604Z,11.30
2019-03-29T12:18:47.541Z,10.07
2019-03-29T12:21:16.820Z,9.13
2019-03-29T12:23:46.342Z,8.17
2019-03-29T12:26:16.253Z,9.20
2019-03-29T12:28:45.830Z,9.13
2019-03-29T12:31:15.661Z,9.87
2019-03-29T12:33:45.514Z,10.20
2019-03-29T12:36:14.990Z,9.83
2019-03-29T12:38:44.568Z,9.50
2019-03-29T12:41:16.898Z,9.30
2019-03-29T12:43:55.320Z,7.83
2019-03-29T12:46:18.405Z,8.97
2019-03-29T12:48:50.319Z,7.30
2019-03-29T12:51:21.970Z,7.50
2019-03-29T12:53:53.704Z,7.80
2019-03-29T12:56:24.228Z,8.10
2019-03-29T12:58:54.201Z,7.17
2019-03-29T13:01:23.688Z,7.60
2019-03-29T13:03:53.436Z,7.17
2019-03-29T13:06:31.317Z,7.00
2019-03-29T13:09:11.055Z,6.30
2019-03-29T13:11:40.457Z,7.27
2019-03-29T13:14:10.886Z,6.97
2019-03-29T13:16:40.172Z,6.50
2019-03-29T13:19:09.772Z,5.80
2019-03-29T13:21:40.561Z,4.60
2019-03-29T13:24:10.407Z,5.07
2019-03-29T13:26:40.391Z,4.97
2019-03-29T13:29:10.496Z,4.70
2019-03-29T13:31:39.807Z,4.47
2019-03-29T13:34:09.611Z,4.87
2019-03-29T13:36:38.935Z,4.53
2019-03-29T13:39:08.518Z,4.23
2019-03-29T13:41:39.680Z,4.00
2019-03-29T13:44:22.956Z,4.03
2019-03-29T13:46:40.475Z,4.20
2019-03-29T13:49:11.942Z,4.27
2019-03-29T13:51:42.172Z,4.40
2019-03-29T13:54:14.555Z,3.97
2019-03-29T13:56:45.123Z,4.67
2019-03-29T13:59:16.498Z,3.80
2019-03-29T14:01:46.261Z,4.23
2019-03-29T14:04:19.457Z,4.00
2019-03-29T14:06:48.687Z,4.20
2019-03-29T14:09:18.631Z,4.47
2019-03-29T14:11:50.406Z,3.97
2019-03-29T14:14:32.420Z,4.10
2019-03-29T14:16:52.708Z,3.80
2019-03-29T14:19:22.282Z,3.70
2019-03-29T14:21:51.885Z,3.33
2019-03-29T14:24:22.765Z,3.40
2019-03-29T14:26:53.317Z,3.53
2019-03-29T14:29:23.562Z,3.30
2019-03-29T14:31:55.692Z,3.53
2019-03-29T14:34:28.696Z,3.13
2019-03-29T14:36:59.918Z,3.47
2019-03-29T14:39:29.109Z,3.43
2019-03-29T14:42:01.810Z,2.70
2019-03-29T14:44:31.867Z,3.07
2019-03-29T14:47:05.636Z,3.50
2019-03-29T14:49:39.729Z,3.27
2019-03-29T14:52:15.328Z,3.13
2019-03-29T14:54:46.084Z,3.00
2019-03-29T14:57:17.011Z,3.30
2019-03-29T14:59:47.327Z,3.57
2019-03-29T15:02:17.697Z,3.27
2019-03-29T15:04:47.344Z,3.40
2019-03-29T15:07:17.353Z,3.80
2019-03-29T15:09:47.008Z,4.00
2019-03-29T15:12:16.817Z,3.90
2019-03-29T15:14:46.170Z,3.90
2019-03-29T15:17:16.841Z,3.67
2019-03-29T15:19:47.240Z,4.13
2019-03-29T15:22:16.744Z,3.67
2019-03-29T15:24:46.073Z,3.80
2019-03-29T15:27:17.623Z,3.90
2019-03-29T15:29:47.846Z,3.80
2019-03-29T15:32:17.084Z,3.70
2019-03-29T15:34:46.297Z,4.30
2019-03-29T15:37:17.936Z,3.47
2019-03-29T15:39:53.997Z,3.73
2019-03-29T15:42:23.436Z,3.40
2019-03-29T15:44:52.781Z,4.17
2019-03-29T15:47:23.311Z,3.87
2019-03-29T15:49:56.203Z,3.77
2019-03-29T15:52:24.100Z,3.83
2019-03-29T15:54:53.801Z,3.70
2019-03-29T15:57:23.348Z,4.40
2019-03-29T15:59:52.769Z,4.40
2019-03-29T16:02:23.748Z,4.80
2019-03-29T16:04:54.391Z,4.60
2019-03-29T16:07:24.170Z,4.77
2019-03-29T16:09:53.934Z,4.77
2019-03-29T16:12:25.209Z,5.00
2019-03-29T16:14:55.414Z,4.93
2019-03-29T16:17:26.012Z,5.07
2019-03-29T16:19:56.957Z,4.83
2019-03-29T16:22:26.734Z,5.23
2019-03-29T16:24:56.687Z,4.73
2019-03-29T16:27:26.271Z,5.23
2019-03-29T16:29:56.300Z,4.43
2019-03-29T16:32:27.444Z,5.07
2019-03-29T16:34:56.717Z,4.67
2019-03-29T16:37:27.423Z,4.40
2019-03-29T16:39:58.143Z,5.13
2019-03-29T16:42:29.053Z,5.10
2019-03-29T16:45:02.462Z,5.17
2019-03-29T16:47:32.691Z,5.07
2019-03-29T16:50:05.854Z,5.13
2019-03-29T16:52:36.596Z,5.40
2019-03-29T16:55:13.219Z,4.90
2019-03-29T16:57:38.099Z,5.30
2019-03-29T17:00:12.344Z,5.10
2019-03-29T17:02:43.660Z,5.80
2019-03-29T17:05:12.977Z,5.63
2019-03-29T17:07:42.675Z,7.07
2019-03-29T17:10:13.401Z,6.20
2019-03-29T17:12:46.518Z,5.27
2019-03-29T17:15:19.627Z,5.57
2019-03-29T17:17:49.304Z,5.53
2019-03-29T17:20:19.873Z,5.83
2019-03-29T17:22:51.234Z,5.20
2019-03-29T17:25:22.678Z,5.27
2019-03-29T17:27:53.213Z,6.03
2019-03-29T17:30:35.514Z,5.70
2019-03-29T17:33:05.601Z,5.50
2019-03-29T17:35:36.874Z,5.73
2019-03-29T17:38:06.246Z,5.30
2019-03-29T17:40:37.352Z,5.77
2019-03-29T17:43:06.829Z,5.57
2019-03-29T17:45:37.295Z,5.70
2019-03-29T17:48:08.083Z,6.07
2019-03-29T17:50:37.559Z,6.20
2019-03-29T17:53:08.102Z,6.07
2019-03-29T17:55:38.173Z,5.67
2019-03-29T17:58:07.589Z,6.13
2019-03-29T18:00:37.893Z,6.63
2019-03-29T18:03:07.292Z,6.20
2019-03-29T18:05:36.891Z,6.07
2019-03-29T18:08:06.231Z,5.73
2019-03-29T18:10:37.104Z,6.60
2019-03-29T18:13:06.554Z,6.80
2019-03-29T18:15:36.776Z,6.80
2019-03-29T18:18:06.049Z,6.37
2019-03-29T18:20:35.910Z,7.27
2019-03-29T18:23:05.868Z,6.90
2019-03-29T18:25:35.545Z,7.37
2019-03-29T18:28:04.990Z,7.90
2019-03-29T18:30:38.937Z,7.47
2019-03-29T18:33:08.061Z,8.97
2019-03-29T18:35:37.534Z,11.73
2019-03-29T18:38:08.803Z,14.33
2019-03-29T18:40:38.759Z,13.77
2019-03-29T18:43:08.300Z,15.73
2019-03-29T18:45:37.502Z,14.30
2019-03-29T18:48:07.431Z,14.30
2019-03-29T18:50:36.976Z,16.67
2019-03-29T18:53:07.146Z,15.27
2019-03-29T18:55:37.654Z,15.80
2019-03-29T18:58:08.020Z,17.03
2019-03-29T19:00:38.866Z,17.13
2019-03-29T19:03:12.601Z,15.43
2019-03-29T19:05:44.230Z,16.20
2019-03-29T19:08:16.127Z,16.80
2019-03-29T19:10:49.827Z,17.23
2019-03-29T19:13:22.299Z,17.03
2019-03-29T19:15:52.075Z,16.90
2019-03-29T19:18:22.009Z,15.77
2019-03-29T19:20:52.815Z,16.93
2019-03-29T19:23:22.670Z,17.00
2019-03-29T19:25:52.240Z,17.20
2019-03-29T19:28:23.129Z,14.10
2019-03-29T19:31:16.631Z,16.47
2019-03-29T19:33:49.160Z,16.77
2019-03-29T19:36:18.864Z,15.87
2019-03-29T19:38:48.539Z,16.27
2019-03-29T19:41:18.468Z,16.60
2019-03-29T19:43:49.078Z,15.33
2019-03-29T19:46:19.597Z,15.77
2019-03-29T19:48:50.611Z,16.40
2019-03-29T19:51:20.209Z,16.27
2019-03-29T19:53:49.700Z,15.00
2019-03-29T19:56:19.531Z,15.97
2019-03-29T19:58:50.020Z,17.03
2019-03-29T20:01:20.375Z,16.37
2019-03-29T20:03:50.009Z,16.20
2019-03-29T20:06:19.649Z,17.03
2019-03-29T20:08:50.096Z,17.83
2019-03-29T20:11:22.346Z,38.10
2019-03-29T20:13:52.223Z,62.10
2019-03-29T20:16:21.690Z,30.93
2019-03-29T20:18:54.442Z,39.47
2019-03-29T20:21:26.513Z,31.90
2019-03-29T20:23:56.019Z,32.83
2019-03-29T20:26:25.529Z,35.57
2019-03-29T20:28:55.448Z,20.90
2019-03-29T20:31:29.097Z,21.97
2019-03-29T20:33:59.327Z,24.13
2019-03-29T20:36:28.754Z,23.40
2019-03-29T20:38:58.236Z,22.10
2019-03-29T20:41:35.257Z,28.80
2019-03-29T20:44:08.595Z,27.60
2019-03-29T20:46:38.528Z,29.03
2019-03-29T20:49:08.711Z,26.53
2019-03-29T20:51:38.206Z,28.40
2019-03-29T20:54:11.403Z,31.73
2019-03-29T20:56:42.010Z,29.83
2019-03-29T20:59:11.730Z,27.00
2019-03-29T21:01:41.094Z,24.17
2019-03-29T21:04:10.614Z,23.57
2019-03-29T21:06:40.855Z,24.87
2019-03-29T21:09:12.167Z,25.27
2019-03-29T21:11:41.393Z,25.80
2019-03-29T21:14:15.995Z,26.73
2019-03-29T21:16:48.065Z,25.33
2019-03-29T21:19:18.601Z,25.07
2019-03-29T21:21:48.605Z,26.37
2019-03-29T21:24:19.391Z,26.17
2019-03-29T21:33:09.550Z,26.83
2019-03-29T21:35:40.116Z,30.10
2019-03-29T21:38:13.530Z,26.57
2019-03-29T21:40:42.932Z,25.83
2019-03-29T21:43:12.395Z,25.83
2019-03-29T21:45:42.743Z,29.47
2019-03-29T21:48:28.260Z,26.87
2019-03-29T21:50:49.194Z,27.50
2019-03-29T21:53:22.161Z,27.30
2019-03-29T21:55:53.974Z,30.40
2019-03-29T21:58:28.649Z,28.63
2019-03-29T22:01:00.758Z,28.40
2019-03-29T22:03:36.822Z,31.20
2019-03-29T22:06:11.535Z,33.43
2019-03-29T22:08:42.409Z,33.90
2019-03-29T22:11:31.311Z,34.80
2019-03-29T22:17:12.612Z,37.60
2019-03-29T22:19:44.291Z,34.43
2019-03-29T22:22:14.400Z,38.47
2019-03-29T22:27:26.188Z,37.67
2019-03-29T22:29:56.435Z,35.63
2019-03-29T22:32:27.692Z,37.97
2019-03-29T22:34:57.310Z,38.47
2019-03-29T22:37:28.931Z,39.93
2019-03-29T22:40:00.366Z,36.60
2019-03-29T22:42:29.861Z,37.03
2019-03-29T22:44:59.091Z,40.30
2019-03-29T22:47:29.911Z,39.83
2019-03-29T22:49:59.568Z,43.23
2019-03-29T22:52:29.306Z,40.70
2019-03-29T22:54:58.745Z,39.03
2019-03-29T22:57:29.179Z,39.67
2019-03-29T23:00:01.103Z,35.33
2019-03-29T23:02:33.272Z,40.47
2019-03-29T23:05:02.710Z,38.63
2019-03-29T23:07:32.453Z,33.97
2019-03-29T23:10:04.354Z,37.43
2019-03-29T23:12:34.398Z,39.17
2019-03-29T23:15:04.412Z,39.13
2019-03-29T23:17:36.128Z,37.53
2019-03-29T23:20:08.579Z,37.53
2019-03-29T23:22:37.934Z,37.60
2019-03-29T23:25:07.843Z,38.73
2019-03-29T23:27:39.642Z,37.67
2019-03-29T23:30:10.506Z,39.60
2019-03-29T23:32:39.691Z,39.90
2019-03-29T23:35:21.405Z,41.20
2019-03-29T23:38:00.415Z,39.90
2019-03-29T23:40:44.239Z,40.67
2019-03-29T23:43:14.666Z,39.73
2019-03-29T23:46:03.562Z,39.00
2019-03-29T23:48:42.560Z,38.20
2019-03-29T23:51:14.094Z,38.90
2019-03-29T23:53:44.136Z,37.77
2019-03-29T23:56:13.649Z,37.13
2019-03-29T23:58:42.809Z,39.37
